Detalii statie AFILIU TRANS MIZIL [00001982]

Toti senzorii

Date Temperatura solului [C]Precipitatii [mm]Voltaj baterie [mV]Leaf Wetness [Min]HC Air temperature [C]HC Relative humidity [%]Punctul de roua [C]
medieminmaxsumaultimatimpmedieminmaxmediemediemin
2019-02-21 01:00:00 0 6884 6.26 5.86 6.55 75.91 2.1 1.9
2019-02-21 02:00:00 0 6884 5.5 5.29 5.75 75.71 1.4 0.8
2019-02-21 03:00:00 0 6864 4.37 3.92 5.15 76.4 0.4 0.1
2019-02-21 04:00:00 0 6874 4.31 4.01 4.79 77.32 0.5 0.4
2019-02-21 05:00:00 0 6864 3.64 2.99 4.02 79.54 0.3 -0.3
2019-02-21 06:00:00 0 6844 2.15 1.72 2.74 83.66 -0.3 -0.7
2019-02-21 07:00:00 0 6864 1.68 0.91 2.4 83.99 -0.7 -1.3
2019-02-21 08:00:00 0 6844 2.03 0.93 3.74 80.32 -1 -1.7
2019-02-21 09:00:00 0 7148 4.49 3.77 5.38 71.88 -0.1 -0.6
2019-02-21 10:00:00 0 7226 7.59 5.2 9.42 59.44 0 -1.5
2019-02-21 11:00:00 0 7226 10.57 9.84 11.47 40.38 -2.4 -3.6
2019-02-21 12:00:00 0 7226 11.56 10.97 12.07 33.77 -4 -4.9
2019-02-21 13:00:00 0 7226 12.22 11.89 12.91 35.69 -2.7 -3.9
2019-02-21 14:00:00 0 7226 12.43 11.61 13.12 36.51 -2.1 -2.9
2019-02-21 15:00:00 0 7216 12.1 11.32 12.76 41.34 -0.7 -1.2
2019-02-21 16:00:00 0 7216 11.96 11.78 12.45 38.71 -1.7 -3.7
2019-02-21 17:00:00 0 7216 11.19 10.46 11.75 34.08 -4.1 -4.5
2019-02-21 18:00:00 0 7108 9.47 8.73 10.36 36.99 -4.6 -5.1
2019-02-21 19:00:00 0 7010 7.94 7.71 8.43 39.64 -5 -5.4
2019-02-21 20:00:00 0 6932 6.77 5.7 7.98 42.35 -5.2 -5.9
2019-02-21 21:00:00 0 6922 5.62 4.93 6.36 45.47 -5.3 -5.9
2019-02-21 22:00:00 0 6922 4.14 3.6 5.05 50.9 -5.2 -5.5
2019-02-21 23:00:00 0 6894 4.42 4.07 4.81 49.35 -5.3 -5.6
2019-02-22 00:00:00 0 6894 4.55 3.83 5.15 48.76 -5.3 -5.7
2019-02-22 01:00:00 0 6874 3.6 3.06 4.6 53.45 -5 -5.8
2019-02-22 02:00:00 0 6854 3.11 2.86 3.5 56.71 -4.6 -4.9
2019-02-22 03:00:00 0 6854 2.38 1.99 3.02 62.57 -4 -4.4
2019-02-22 04:00:00 0 6844 2.52 1.72 3.06 62.09 -4 -4.3
2019-02-22 05:00:00 0 6834 0.84 0.51 1.21 71.4 -3.7 -4
2019-02-22 06:00:00 0 6854 0.53 0 0.85 72.63 -3.8 -4
2019-02-22 07:00:00 0 6834 1.1 0.18 2.15 69.99 -3.7 -4
2019-02-22 08:00:00 0 6816 2.21 1.8 2.91 66.14 -3.4 -4
2019-02-22 09:00:00 0 6844 2.98 2.32 3.83 67.27 -2.4 -2.9
2019-02-22 10:00:00 0 6874 3.83 3.32 4.43 71.1 -0.9 -1.7
2019-02-22 11:00:00 0 7196 5.56 4.84 5.99 83.22 2.8 1.5
2019-02-22 12:00:00 0.2 7216 5.59 5.38 5.86 87.07 3.4 3.2
2019-02-22 13:00:00 0 7216 5.79 5.5 6.01 85.12 3.3 3
2019-02-22 14:00:00 0 7216 5.75 5.65 5.89 85.38 3.3 3.2
2019-02-22 15:00:00 0 7166 5.06 4.72 5.79 94.77 4.1 3.5
2019-02-22 16:00:00 0 7138 3.15 0.58 4.84 100 3.1 0.5
2019-02-22 17:00:00 0 7098 1.2 0.74 1.62 84.38 -1.2 -3.3
2019-02-22 18:00:00 0 6992 -0.16 -0.77 0.43 82.03 -2.7 -3.5
2019-02-22 19:00:00 0 6922 -0.73 -0.94 -0.64 77.92 -4 -5
2019-02-22 20:00:00 0 6864 -1.62 -1.81 -1.06 77.83 -4.9 -5.7
2019-02-22 21:00:00 0 6844 -1.7 -1.98 -1.5 61.46 -8.1 -9.9
2019-02-22 22:00:00 0 6854 -2.23 -2.55 -1.91 55.92 -9.8 -10.2
2019-02-22 23:00:00 0 6826 -2.62 -2.68 -2.55 52.18 -11 -11.7